createdAt,value
2023-04-27T00:02:20.693Z,8.33
2023-04-27T00:04:50.213Z,8.20
2023-04-27T00:07:19.414Z,8.46
2023-04-27T00:09:46.863Z,8.34
2023-04-27T00:12:14.862Z,7.93
2023-04-27T00:14:42.189Z,7.89
2023-04-27T00:17:09.640Z,7.96
2023-04-27T00:19:37.730Z,8.13
2023-04-27T00:22:06.479Z,8.05
2023-04-27T00:24:35.348Z,8.16
2023-04-27T00:27:03.667Z,8.20
2023-04-27T00:29:30.897Z,8.16
2023-04-27T00:31:58.299Z,8.35
2023-04-27T00:34:26.019Z,8.41
2023-04-27T00:36:53.432Z,8.38
2023-04-27T00:39:21.478Z,8.45
2023-04-27T00:41:49.396Z,8.37
2023-04-27T00:44:26.437Z,8.45
2023-04-27T00:46:54.511Z,8.17
2023-04-27T00:49:22.575Z,8.26
2023-04-27T00:51:50.222Z,8.19
2023-04-27T00:54:23.834Z,8.27
2023-04-27T00:56:52.659Z,8.35
2023-04-27T00:59:20.389Z,8.37
2023-04-27T01:01:48.069Z,8.38
2023-04-27T01:04:18.196Z,8.29
2023-04-27T01:06:45.921Z,8.33
2023-04-27T01:09:14.173Z,8.30
2023-04-27T01:11:43.297Z,8.35
2023-04-27T01:14:10.591Z,8.27
2023-04-27T01:16:38.073Z,8.27
2023-04-27T01:19:07.291Z,8.15
2023-04-27T01:21:34.600Z,8.11
2023-04-27T01:24:02.000Z,8.14
2023-04-27T01:26:30.184Z,8.00
2023-04-27T01:28:57.722Z,7.85
2023-04-27T01:31:27.951Z,7.88
2023-04-27T01:33:57.907Z,7.95
2023-04-27T01:36:25.493Z,7.85
2023-04-27T01:38:53.066Z,7.91
2023-04-27T01:41:20.972Z,7.75
2023-04-27T01:43:49.140Z,7.67
2023-04-27T01:46:16.663Z,7.79
2023-04-27T01:48:46.721Z,7.72
2023-04-27T01:51:14.398Z,7.85
2023-04-27T01:53:42.430Z,7.61
2023-04-27T01:56:10.479Z,7.55
2023-04-27T01:58:37.924Z,7.54
2023-04-27T02:01:09.172Z,7.60
2023-04-27T02:03:36.998Z,7.50
2023-04-27T02:06:06.057Z,7.46
2023-04-27T02:08:34.200Z,7.29
2023-04-27T02:11:02.038Z,7.34
2023-04-27T02:13:30.920Z,7.35
2023-04-27T02:16:03.086Z,7.18
2023-04-27T02:18:32.612Z,7.18
2023-04-27T02:21:02.246Z,7.14
2023-04-27T02:23:29.628Z,7.27
2023-04-27T02:25:58.690Z,7.33
2023-04-27T02:28:26.106Z,7.08
2023-04-27T02:30:54.892Z,7.09
2023-04-27T02:33:22.892Z,7.00
2023-04-27T02:35:55.435Z,6.99
2023-04-27T02:38:23.608Z,6.91
2023-04-27T02:40:55.234Z,6.91
2023-04-27T02:43:26.111Z,6.91
2023-04-27T02:45:53.996Z,6.96
2023-04-27T02:48:22.834Z,6.90
2023-04-27T02:50:56.929Z,6.93
2023-04-27T02:53:24.570Z,6.94
2023-04-27T02:55:55.080Z,6.89
2023-04-27T02:58:22.807Z,6.96
2023-04-27T03:00:55.898Z,7.03
2023-04-27T03:03:24.232Z,6.91
2023-04-27T03:05:55.124Z,6.96
2023-04-27T03:08:24.228Z,6.84
2023-04-27T03:10:54.205Z,6.90
2023-04-27T03:13:22.579Z,6.74
2023-04-27T03:15:50.222Z,6.68
2023-04-27T03:18:20.118Z,6.67
2023-04-27T03:20:47.522Z,6.65
2023-04-27T03:23:16.155Z,6.72
2023-04-27T03:25:44.098Z,6.64
2023-04-27T03:28:11.523Z,6.65
2023-04-27T03:30:41.256Z,6.57
2023-04-27T03:33:08.981Z,6.79
2023-04-27T03:35:36.767Z,6.65
2023-04-27T03:38:05.013Z,6.75
2023-04-27T03:40:33.519Z,6.71
2023-04-27T03:43:02.052Z,6.43
2023-04-27T03:45:31.229Z,6.52
2023-04-27T03:48:00.518Z,6.62
2023-04-27T03:50:30.180Z,6.71
2023-04-27T03:52:57.798Z,6.87
2023-04-27T03:55:28.315Z,6.72
2023-04-27T03:57:56.712Z,6.71
2023-04-27T04:00:25.479Z,6.72
2023-04-27T04:02:54.297Z,6.75
2023-04-27T04:05:22.615Z,6.62
2023-04-27T04:07:50.090Z,6.79
2023-04-27T04:10:20.444Z,6.71
2023-04-27T04:12:48.645Z,6.90
2023-04-27T04:15:16.946Z,7.14
2023-04-27T04:17:45.144Z,6.92
2023-04-27T04:20:12.653Z,7.11
2023-04-27T04:22:41.985Z,7.22
2023-04-27T04:25:09.967Z,7.54
2023-04-27T04:27:38.278Z,7.75
2023-04-27T04:30:12.049Z,7.88
2023-04-27T04:32:41.656Z,8.03
2023-04-27T04:35:11.329Z,7.94
2023-04-27T04:37:39.015Z,8.03
2023-04-27T04:40:11.106Z,8.30
2023-04-27T04:42:39.450Z,8.19
2023-04-27T04:45:08.067Z,8.12
2023-04-27T04:47:36.936Z,8.48
2023-04-27T04:50:05.889Z,8.52
2023-04-27T04:52:37.482Z,8.60
2023-04-27T04:55:05.855Z,8.66
2023-04-27T04:57:33.830Z,8.71
2023-04-27T05:00:07.045Z,8.89
2023-04-27T05:02:35.067Z,9.14
2023-04-27T05:05:11.120Z,9.27
2023-04-27T05:07:39.247Z,9.32
2023-04-27T05:10:09.317Z,9.31
2023-04-27T05:12:39.198Z,9.56
2023-04-27T05:15:08.143Z,9.55
2023-04-27T05:17:37.426Z,9.86
2023-04-27T05:20:05.393Z,10.09
2023-04-27T05:22:33.312Z,10.10
2023-04-27T05:25:07.016Z,10.13
2023-04-27T05:27:35.950Z,10.28
2023-04-27T05:30:03.971Z,10.41
2023-04-27T05:32:33.897Z,10.56
2023-04-27T05:35:01.965Z,10.29
2023-04-27T05:37:31.336Z,10.66
2023-04-27T05:40:00.405Z,10.90
2023-04-27T05:42:33.382Z,11.24
2023-04-27T05:45:02.261Z,11.43
2023-04-27T05:47:31.588Z,11.45
2023-04-27T05:50:01.316Z,11.45
2023-04-27T05:52:31.416Z,11.68
2023-04-27T05:54:59.457Z,12.00
2023-04-27T05:57:30.717Z,11.98
2023-04-27T06:00:06.038Z,12.02
2023-04-27T06:02:42.209Z,12.02
2023-04-27T06:05:10.198Z,12.47
2023-04-27T06:07:38.307Z,12.46
2023-04-27T06:10:08.158Z,12.67
2023-04-27T06:12:43.469Z,12.40
2023-04-27T06:15:13.122Z,12.48
2023-04-27T06:17:41.414Z,12.59
2023-04-27T06:20:12.280Z,12.72
2023-04-27T06:22:47.144Z,12.78
2023-04-27T06:25:15.346Z,12.74
2023-04-27T06:27:43.241Z,12.39
2023-04-27T06:30:11.934Z,12.75
2023-04-27T06:32:40.196Z,12.70
2023-04-27T06:35:08.247Z,12.84
2023-04-27T06:37:36.168Z,13.20
2023-04-27T06:40:07.005Z,12.58
2023-04-27T06:42:35.399Z,13.04
2023-04-27T06:45:04.779Z,13.28
2023-04-27T06:47:32.919Z,13.54
2023-04-27T06:50:04.448Z,13.62
2023-04-27T06:52:34.091Z,14.00
2023-04-27T06:55:01.900Z,13.69
2023-04-27T06:57:31.507Z,14.00
2023-04-27T06:59:59.008Z,14.42
2023-04-27T07:02:28.514Z,14.62
2023-04-27T07:05:03.226Z,14.39
2023-04-27T07:07:34.444Z,14.64
2023-04-27T07:10:02.160Z,14.64
2023-04-27T07:12:31.553Z,14.68
2023-04-27T07:15:00.220Z,15.25
2023-04-27T07:17:29.474Z,15.33
2023-04-27T07:19:57.393Z,15.60
2023-04-27T07:22:27.309Z,15.19
2023-04-27T07:24:58.509Z,15.17
2023-04-27T07:27:27.600Z,15.39
2023-04-27T07:29:55.237Z,15.20
2023-04-27T07:32:24.042Z,14.94
2023-04-27T07:34:57.186Z,14.97
2023-04-27T07:37:27.103Z,14.92
2023-04-27T07:40:00.190Z,15.38
2023-04-27T07:42:29.873Z,15.35
2023-04-27T07:44:58.848Z,14.74
2023-04-27T07:47:26.893Z,15.31
2023-04-27T07:49:55.995Z,15.08
2023-04-27T07:52:24.960Z,14.74
2023-04-27T07:54:52.794Z,14.78
2023-04-27T07:57:20.309Z,14.69
2023-04-27T07:59:53.225Z,14.96
2023-04-27T08:02:21.199Z,15.22
2023-04-27T08:04:50.335Z,14.89
2023-04-27T08:07:19.418Z,14.43
2023-04-27T08:09:47.973Z,14.81
2023-04-27T08:12:16.707Z,14.93
2023-04-27T08:14:46.485Z,15.10
2023-04-27T08:17:15.983Z,15.65
2023-04-27T08:19:45.711Z,15.20
2023-04-27T08:22:13.708Z,15.34
2023-04-27T08:24:41.528Z,15.34
2023-04-27T08:27:13.048Z,15.59
2023-04-27T08:29:44.847Z,15.17
2023-04-27T08:32:15.319Z,15.27
2023-04-27T08:34:46.569Z,15.38
2023-04-27T08:37:18.819Z,15.61
2023-04-27T08:39:55.211Z,15.38
2023-04-27T08:42:24.056Z,15.58
2023-04-27T08:44:58.251Z,15.66
2023-04-27T08:47:41.194Z,15.68
2023-04-27T08:50:11.031Z,15.71
2023-04-27T08:52:47.246Z,15.90
2023-04-27T08:55:16.677Z,16.59
2023-04-27T08:58:04.969Z,16.79
2023-04-27T09:00:42.208Z,16.92
2023-04-27T09:03:23.887Z,16.93
2023-04-27T09:06:03.678Z,17.20
2023-04-27T09:08:45.726Z,17.11
2023-04-27T09:11:14.054Z,17.17
2023-04-27T09:13:45.775Z,16.78
2023-04-27T09:16:21.609Z,16.75
2023-04-27T09:18:50.588Z,16.54
2023-04-27T09:21:28.141Z,17.00
2023-04-27T09:23:56.358Z,17.34
2023-04-27T09:26:28.110Z,17.36
2023-04-27T09:28:57.838Z,17.51
2023-04-27T09:31:32.882Z,17.73
2023-04-27T09:34:01.096Z,17.72
2023-04-27T09:36:29.168Z,18.12
2023-04-27T09:38:56.869Z,17.69
2023-04-27T09:41:25.118Z,17.59
2023-04-27T09:43:58.573Z,17.78
2023-04-27T09:46:26.688Z,17.43
2023-04-27T09:48:59.962Z,17.25
2023-04-27T09:51:28.740Z,17.03
2023-04-27T09:53:59.205Z,16.33
2023-04-27T09:56:51.154Z,16.30
2023-04-27T09:59:37.597Z,16.46
2023-04-27T10:02:20.871Z,16.68
2023-04-27T10:05:12.399Z,16.89
2023-04-27T10:07:41.704Z,17.32
2023-04-27T10:10:17.107Z,17.05
2023-04-27T10:12:44.608Z,17.47
2023-04-27T10:15:14.533Z,17.94
2023-04-27T10:17:54.282Z,18.45
2023-04-27T10:20:36.088Z,18.56
2023-04-27T10:23:03.957Z,18.48
2023-04-27T10:25:39.983Z,18.74
2023-04-27T10:28:10.441Z,18.22
2023-04-27T10:30:46.464Z,18.14
2023-04-27T10:33:16.802Z,18.25
2023-04-27T10:35:59.114Z,18.74
2023-04-27T10:38:30.491Z,18.69
2023-04-27T10:41:02.169Z,18.42
2023-04-27T10:43:31.976Z,18.65
2023-04-27T10:46:15.268Z,17.94
2023-04-27T10:48:56.173Z,18.27
2023-04-27T10:51:24.278Z,18.10
2023-04-27T10:53:53.265Z,18.32
2023-04-27T10:56:24.118Z,18.61
2023-04-27T10:58:52.122Z,18.53
2023-04-27T11:01:33.298Z,18.79
2023-04-27T11:04:02.899Z,18.77
2023-04-27T11:06:34.347Z,18.46
2023-04-27T11:09:06.664Z,19.08
2023-04-27T11:11:34.461Z,18.97
2023-04-27T11:14:03.826Z,19.35
2023-04-27T11:16:36.387Z,19.00
2023-04-27T11:19:05.396Z,19.22
2023-04-27T11:21:32.810Z,19.28
2023-04-27T11:24:09.974Z,19.61
2023-04-27T11:26:39.057Z,19.26
2023-04-27T11:29:13.359Z,19.53
2023-04-27T11:31:54.212Z,19.05
2023-04-27T11:34:23.609Z,19.41
2023-04-27T11:37:14.327Z,19.81
2023-04-27T11:39:49.222Z,19.86
2023-04-27T11:42:26.229Z,19.78
2023-04-27T11:44:54.724Z,19.56
2023-04-27T11:47:26.194Z,19.58
2023-04-27T11:50:00.676Z,19.72
2023-04-27T11:52:29.884Z,19.59
2023-04-27T11:54:57.714Z,19.81
2023-04-27T11:57:29.672Z,19.76
2023-04-27T12:00:02.137Z,20.01
2023-04-27T12:02:42.516Z,19.94
2023-04-27T12:05:14.903Z,19.44
2023-04-27T12:07:47.127Z,19.47
2023-04-27T12:10:15.290Z,19.57
2023-04-27T12:12:43.039Z,19.53
2023-04-27T12:15:21.052Z,19.68
2023-04-27T12:17:50.238Z,19.63
2023-04-27T12:20:20.503Z,19.65
2023-04-27T12:22:49.112Z,19.68
2023-04-27T12:25:18.264Z,19.42
2023-04-27T12:27:52.178Z,19.39
2023-04-27T12:30:22.978Z,19.76
2023-04-27T12:33:01.178Z,19.69
2023-04-27T12:35:32.962Z,19.17
2023-04-27T12:38:02.972Z,18.81
2023-04-27T12:40:32.902Z,18.86
2023-04-27T12:43:01.567Z,18.73
2023-04-27T12:45:30.560Z,18.86
2023-04-27T12:48:04.414Z,18.57
2023-04-27T12:50:39.638Z,18.73
2023-04-27T12:53:16.330Z,19.00
2023-04-27T12:55:57.075Z,18.62
2023-04-27T12:58:25.009Z,19.07
2023-04-27T13:00:52.416Z,18.95
2023-04-27T13:06:11.948Z,18.73
2023-04-27T13:08:42.145Z,19.47
2023-04-27T13:11:16.688Z,18.94
2023-04-27T13:13:45.104Z,19.00
2023-04-27T13:16:26.897Z,19.44
2023-04-27T13:18:58.131Z,19.22
2023-04-27T13:21:30.401Z,19.72
2023-04-27T13:24:02.374Z,19.56
2023-04-27T13:26:31.700Z,19.31
2023-04-27T13:29:02.275Z,18.82
2023-04-27T13:31:32.897Z,19.07
2023-04-27T13:34:06.008Z,19.12
2023-04-27T13:36:40.083Z,19.76
2023-04-27T13:39:10.260Z,19.67
2023-04-27T13:41:41.068Z,19.96
2023-04-27T13:44:09.246Z,19.06
2023-04-27T13:46:41.242Z,18.85
2023-04-27T13:49:11.070Z,18.98
2023-04-27T13:51:40.900Z,19.22
2023-04-27T13:54:09.557Z,19.11
2023-04-27T13:59:16.338Z,18.67
2023-04-27T14:01:48.022Z,18.47
2023-04-27T14:04:24.517Z,18.73
2023-04-27T14:06:56.443Z,19.15
2023-04-27T14:09:27.390Z,18.89
2023-04-27T14:11:57.890Z,18.93
2023-04-27T14:14:27.414Z,18.67
2023-04-27T14:16:57.838Z,18.50
2023-04-27T14:19:28.017Z,18.14
2023-04-27T14:22:03.006Z,18.05
2023-04-27T14:24:31.432Z,17.91
2023-04-27T14:27:03.753Z,17.95
2023-04-27T14:29:31.691Z,17.99
2023-04-27T14:31:59.643Z,17.54
2023-04-27T14:34:36.080Z,17.93
2023-04-27T14:37:13.106Z,18.04
2023-04-27T14:39:42.836Z,18.22
2023-04-27T14:42:13.401Z,18.22
2023-04-27T14:44:44.247Z,18.10
2023-04-27T14:47:15.817Z,18.01
2023-04-27T14:49:45.089Z,17.82
2023-04-27T14:54:49.521Z,18.04
2023-04-27T14:57:18.065Z,18.38
2023-04-27T14:59:52.544Z,18.01
2023-04-27T15:02:24.005Z,18.22
2023-04-27T15:04:58.654Z,18.00
2023-04-27T15:07:33.225Z,17.94
2023-04-27T15:10:01.558Z,18.00
2023-04-27T15:12:30.442Z,17.89
2023-04-27T15:15:01.132Z,18.08
2023-04-27T15:17:30.210Z,17.52
2023-04-27T15:19:58.145Z,17.45
2023-04-27T15:25:13.432Z,17.36
2023-04-27T15:27:42.033Z,17.79
2023-04-27T15:30:21.030Z,17.85
2023-04-27T15:32:55.244Z,17.58
2023-04-27T15:35:25.393Z,17.50
2023-04-27T15:37:54.159Z,17.13
2023-04-27T15:40:22.432Z,17.29
2023-04-27T15:42:50.881Z,17.31
2023-04-27T15:45:24.093Z,17.17
2023-04-27T15:47:53.739Z,17.08
2023-04-27T15:50:27.037Z,17.31
2023-04-27T15:52:56.405Z,17.46
2023-04-27T15:55:24.503Z,17.50
2023-04-27T15:57:56.520Z,17.32
2023-04-27T16:00:27.359Z,17.72
2023-04-27T16:02:56.646Z,17.60
2023-04-27T16:05:30.084Z,17.48
2023-04-27T16:08:00.392Z,16.89
2023-04-27T16:10:35.385Z,17.40
2023-04-27T16:13:07.073Z,17.56
2023-04-27T16:15:37.076Z,17.41
2023-04-27T16:18:06.643Z,17.36
2023-04-27T16:20:43.334Z,17.34
2023-04-27T16:23:22.345Z,17.30
2023-04-27T16:25:50.037Z,17.18
2023-04-27T16:28:21.414Z,17.23
2023-04-27T16:30:51.410Z,17.10
2023-04-27T16:33:21.317Z,16.96
2023-04-27T16:35:50.055Z,16.97
2023-04-27T16:38:19.247Z,16.93
2023-04-27T16:40:51.119Z,16.68
2023-04-27T16:43:20.132Z,16.52
2023-04-27T16:48:32.114Z,16.94
2023-04-27T16:51:07.036Z,16.98
2023-04-27T16:53:38.362Z,17.09
2023-04-27T16:56:06.979Z,16.59
2023-04-27T16:58:57.264Z,16.79
2023-04-27T17:01:33.246Z,16.78
2023-04-27T17:04:04.207Z,16.80
2023-04-27T17:06:35.060Z,16.82
2023-04-27T17:09:10.392Z,16.89
2023-04-27T17:11:44.240Z,16.81
2023-04-27T17:14:23.615Z,16.51
2023-04-27T17:16:53.075Z,16.78
2023-04-27T17:19:21.252Z,16.86
2023-04-27T17:24:36.044Z,16.63
2023-04-27T17:27:07.104Z,16.37
2023-04-27T17:29:47.142Z,16.61
2023-04-27T17:34:59.303Z,16.28
2023-04-27T17:37:34.420Z,16.53
2023-04-27T17:40:08.018Z,16.76
2023-04-27T17:42:36.126Z,16.52
2023-04-27T17:45:14.094Z,16.39
2023-04-27T17:47:44.150Z,16.49
2023-04-27T17:50:21.076Z,16.20
2023-04-27T17:55:31.349Z,16.21
2023-04-27T17:57:59.348Z,16.21
2023-04-27T18:00:27.394Z,15.94
2023-04-27T18:03:01.094Z,15.90
2023-04-27T18:05:30.220Z,15.79
2023-04-27T18:08:01.085Z,15.64
2023-04-27T18:10:37.208Z,15.47
2023-04-27T18:13:09.419Z,15.46
2023-04-27T18:15:44.278Z,14.96
2023-04-27T18:18:20.155Z,15.20
2023-04-27T18:21:00.082Z,15.00
2023-04-27T18:23:38.052Z,14.89
2023-04-27T18:26:09.768Z,14.87
2023-04-27T18:28:50.347Z,14.83
2023-04-27T18:31:24.838Z,14.63
2023-04-27T18:34:02.038Z,14.24
2023-04-27T18:36:41.097Z,14.38
2023-04-27T18:39:13.506Z,14.23
2023-04-27T18:41:46.242Z,13.94
2023-04-27T18:44:23.282Z,13.82
2023-04-27T18:46:52.093Z,13.85
2023-04-27T18:49:20.938Z,13.77
2023-04-27T18:51:48.782Z,13.59
2023-04-27T18:54:18.024Z,13.62
2023-04-27T18:56:54.090Z,13.75
2023-04-27T18:59:22.087Z,13.45
2023-04-27T19:01:54.544Z,13.55
2023-04-27T19:04:25.492Z,13.21
2023-04-27T19:06:56.113Z,13.13
2023-04-27T19:09:25.542Z,13.05
2023-04-27T19:12:02.927Z,13.12
2023-04-27T19:14:34.942Z,12.95
2023-04-27T19:17:06.638Z,12.84
2023-04-27T19:19:46.160Z,12.66
2023-04-27T19:22:14.660Z,12.27
2023-04-27T19:24:43.999Z,12.54
2023-04-27T19:27:18.090Z,12.57
2023-04-27T19:29:55.009Z,12.43
2023-04-27T19:32:32.030Z,12.41
2023-04-27T19:35:00.831Z,12.34
2023-04-27T19:37:31.467Z,12.41
2023-04-27T19:39:58.949Z,12.19
2023-04-27T19:42:28.429Z,12.08
2023-04-27T19:44:59.041Z,12.16
2023-04-27T19:47:33.284Z,12.03
2023-04-27T19:50:05.152Z,11.90
2023-04-27T19:52:33.480Z,11.93
2023-04-27T19:55:01.597Z,11.82
2023-04-27T19:57:32.994Z,11.84
2023-04-27T20:00:02.030Z,11.83
2023-04-27T20:02:41.208Z,11.64
2023-04-27T20:05:13.696Z,11.51
2023-04-27T20:07:42.805Z,11.66
2023-04-27T20:10:16.048Z,11.37
2023-04-27T20:12:56.134Z,11.23
2023-04-27T20:15:25.564Z,11.10
2023-04-27T20:17:54.091Z,11.14
2023-04-27T20:20:29.130Z,11.10
2023-04-27T20:22:58.977Z,11.21
2023-04-27T20:25:28.400Z,11.42
2023-04-27T20:27:57.038Z,11.46
2023-04-27T20:33:01.534Z,11.13
2023-04-27T20:35:30.304Z,10.92
2023-04-27T20:37:59.213Z,10.83
2023-04-27T20:40:30.242Z,10.94
2023-04-27T20:42:59.324Z,10.83
2023-04-27T20:45:28.825Z,10.55
2023-04-27T20:47:58.054Z,10.71
2023-04-27T20:53:00.878Z,10.73
2023-04-27T20:55:28.848Z,10.71
2023-04-27T20:58:00.005Z,10.65
2023-04-27T21:00:33.069Z,10.76
2023-04-27T21:03:09.099Z,10.67
2023-04-27T21:05:41.488Z,10.56
2023-04-27T21:08:09.909Z,10.60
2023-04-27T21:10:39.426Z,10.57
2023-04-27T21:13:07.333Z,10.76
2023-04-27T21:15:35.350Z,11.01
2023-04-27T21:18:07.913Z,10.49
2023-04-27T21:20:37.993Z,10.26
2023-04-27T21:23:05.558Z,10.11
2023-04-27T21:25:33.303Z,9.97
2023-04-27T21:28:03.586Z,10.09
2023-04-27T21:30:31.440Z,9.98
2023-04-27T21:32:59.365Z,10.13
2023-04-27T21:35:27.403Z,10.26
2023-04-27T21:37:56.692Z,10.14
2023-04-27T21:40:24.353Z,10.00
2023-04-27T21:42:54.054Z,9.92
2023-04-27T21:45:21.592Z,10.17
2023-04-27T21:47:49.355Z,9.97
2023-04-27T21:50:17.577Z,10.12
2023-04-27T21:52:45.100Z,10.07
2023-04-27T21:55:13.136Z,9.99
2023-04-27T21:57:42.193Z,9.96
2023-04-27T22:00:14.090Z,10.17
2023-04-27T22:02:45.914Z,9.96
2023-04-27T22:05:14.459Z,9.76
2023-04-27T22:07:42.511Z,9.72
2023-04-27T22:10:14.069Z,9.86
2023-04-27T22:12:43.893Z,9.87
2023-04-27T22:15:11.533Z,9.98
2023-04-27T22:17:39.826Z,9.84
2023-04-27T22:20:11.344Z,9.50
2023-04-27T22:22:38.557Z,9.50
2023-04-27T22:25:07.978Z,9.45
2023-04-27T22:27:44.978Z,9.60
2023-04-27T22:30:13.621Z,9.48
2023-04-27T22:32:43.991Z,9.31
2023-04-27T22:35:24.777Z,9.36
2023-04-27T22:38:01.131Z,9.26
2023-04-27T22:40:32.083Z,9.17
2023-04-27T22:43:00.556Z,9.33
2023-04-27T22:45:28.817Z,9.51
2023-04-27T22:47:58.455Z,9.27
2023-04-27T22:50:29.331Z,9.09
2023-04-27T22:52:59.940Z,9.05
2023-04-27T22:55:27.939Z,9.11
2023-04-27T22:57:56.407Z,8.85
2023-04-27T23:00:24.040Z,8.74
2023-04-27T23:02:59.962Z,8.86
2023-04-27T23:05:29.925Z,8.94
2023-04-27T23:07:57.671Z,8.83
2023-04-27T23:10:25.004Z,8.99
2023-04-27T23:12:57.234Z,8.82
2023-04-27T23:15:24.551Z,8.91
2023-04-27T23:17:57.509Z,8.77
2023-04-27T23:20:28.842Z,8.85
2023-04-27T23:22:57.087Z,8.88
2023-04-27T23:25:24.456Z,8.82
2023-04-27T23:27:58.128Z,8.65
2023-04-27T23:30:26.157Z,8.48
2023-04-27T23:32:53.587Z,8.54
2023-04-27T23:35:21.101Z,8.56
2023-04-27T23:37:49.258Z,8.51
2023-04-27T23:40:16.730Z,8.61
2023-04-27T23:42:44.053Z,8.50
2023-04-27T23:45:12.497Z,8.54
2023-04-27T23:47:40.513Z,8.41
2023-04-27T23:50:08.073Z,8.37
2023-04-27T23:52:35.836Z,8.49
2023-04-27T23:55:05.026Z,8.37
2023-04-27T23:57:32.233Z,8.34
